sensor_id;sensor_type;location;lat;lon;timestamp;temperature;humidity
32895;DHT22;19251;49.484;8.260;2023-04-24T00:02:50;15.20;22.00
32895;DHT22;19251;49.484;8.260;2023-04-24T00:07:53;15.20;22.10
32895;DHT22;19251;49.484;8.260;2023-04-24T00:12:55;15.20;22.20
32895;DHT22;19251;49.484;8.260;2023-04-24T00:17:58;15.10;22.40
32895;DHT22;19251;49.484;8.260;2023-04-24T00:23:00;15.10;22.50
32895;DHT22;19251;49.484;8.260;2023-04-24T00:28:02;15.20;22.70
32895;DHT22;19251;49.484;8.260;2023-04-24T00:33:04;15.20;22.60
32895;DHT22;19251;49.484;8.260;2023-04-24T00:38:06;15.20;22.80
32895;DHT22;19251;49.484;8.260;2023-04-24T00:43:09;15.20;22.70
32895;DHT22;19251;49.484;8.260;2023-04-24T00:48:11;15.20;22.80
32895;DHT22;19251;49.484;8.260;2023-04-24T00:53:14;15.20;22.80
32895;DHT22;19251;49.484;8.260;2023-04-24T00:58:16;15.30;22.80
32895;DHT22;19251;49.484;8.260;2023-04-24T01:03:22;15.30;22.80
32895;DHT22;19251;49.484;8.260;2023-04-24T01:08:25;15.30;22.80
32895;DHT22;19251;49.484;8.260;2023-04-24T01:13:28;15.30;22.80
32895;DHT22;19251;49.484;8.260;2023-04-24T01:18:31;15.30;22.90
32895;DHT22;19251;49.484;8.260;2023-04-24T01:23:34;15.30;22.90
32895;DHT22;19251;49.484;8.260;2023-04-24T01:28:36;15.30;23.00
32895;DHT22;19251;49.484;8.260;2023-04-24T01:33:40;15.40;23.00
32895;DHT22;19251;49.484;8.260;2023-04-24T01:38:42;15.40;23.00
32895;DHT22;19251;49.484;8.260;2023-04-24T01:43:45;15.40;23.10
32895;DHT22;19251;49.484;8.260;2023-04-24T01:48:47;15.40;23.00
32895;DHT22;19251;49.484;8.260;2023-04-24T01:53:49;15.40;23.10
32895;DHT22;19251;49.484;8.260;2023-04-24T01:58:52;15.50;23.20
32895;DHT22;19251;49.484;8.260;2023-04-24T02:03:55;15.50;23.30
32895;DHT22;19251;49.484;8.260;2023-04-24T02:09:00;15.50;23.50
32895;DHT22;19251;49.484;8.260;2023-04-24T02:14:03;15.40;23.50
32895;DHT22;19251;49.484;8.260;2023-04-24T02:19:05;15.40;24.00
32895;DHT22;19251;49.484;8.260;2023-04-24T02:24:07;15.30;24.20
32895;DHT22;19251;49.484;8.260;2023-04-24T02:29:09;15.20;24.40
32895;DHT22;19251;49.484;8.260;2023-04-24T02:34:12;15.10;24.40
32895;DHT22;19251;49.484;8.260;2023-04-24T02:39:14;15.00;24.50
32895;DHT22;19251;49.484;8.260;2023-04-24T02:44:18;14.90;24.70
32895;DHT22;19251;49.484;8.260;2023-04-24T02:49:20;14.80;24.60
32895;DHT22;19251;49.484;8.260;2023-04-24T02:54:23;14.70;24.80
32895;DHT22;19251;49.484;8.260;2023-04-24T02:59:25;14.60;24.90
32895;DHT22;19251;49.484;8.260;2023-04-24T03:04:29;14.60;24.90
32895;DHT22;19251;49.484;8.260;2023-04-24T03:09:31;14.40;24.80
32895;DHT22;19251;49.484;8.260;2023-04-24T03:14:33;14.30;24.70
32895;DHT22;19251;49.484;8.260;2023-04-24T03:19:35;14.20;24.80
32895;DHT22;19251;49.484;8.260;2023-04-24T03:24:38;14.20;24.80
32895;DHT22;19251;49.484;8.260;2023-04-24T03:29:41;14.10;24.70
32895;DHT22;19251;49.484;8.260;2023-04-24T03:34:45;14.00;24.60
32895;DHT22;19251;49.484;8.260;2023-04-24T03:39:48;13.90;24.70
32895;DHT22;19251;49.484;8.260;2023-04-24T03:44:52;13.80;24.60
32895;DHT22;19251;49.484;8.260;2023-04-24T03:49:56;13.80;24.60
32895;DHT22;19251;49.484;8.260;2023-04-24T03:54:59;13.70;24.60
32895;DHT22;19251;49.484;8.260;2023-04-24T04:00:01;13.50;24.60
32895;DHT22;19251;49.484;8.260;2023-04-24T04:10:17;13.40;24.60
32895;DHT22;19251;49.484;8.260;2023-04-24T04:15:19;13.30;24.60
32895;DHT22;19251;49.484;8.260;2023-04-24T04:20:23;13.30;24.70
32895;DHT22;19251;49.484;8.260;2023-04-24T04:25:25;13.20;24.70
32895;DHT22;19251;49.484;8.260;2023-04-24T04:30:28;13.20;24.70
32895;DHT22;19251;49.484;8.260;2023-04-24T04:35:35;13.10;24.60
32895;DHT22;19251;49.484;8.260;2023-04-24T04:40:38;13.00;24.50
32895;DHT22;19251;49.484;8.260;2023-04-24T04:45:41;13.00;24.50
32895;DHT22;19251;49.484;8.260;2023-04-24T04:51:06;13.00;24.50
32895;DHT22;19251;49.484;8.260;2023-04-24T04:56:08;13.00;24.50
32895;DHT22;19251;49.484;8.260;2023-04-24T05:01:10;13.00;24.30
32895;DHT22;19251;49.484;8.260;2023-04-24T05:06:13;13.10;24.40
32895;DHT22;19251;49.484;8.260;2023-04-24T05:11:16;13.20;24.20
32895;DHT22;19251;49.484;8.260;2023-04-24T05:16:18;13.30;24.10
32895;DHT22;19251;49.484;8.260;2023-04-24T05:21:21;13.30;24.10
32895;DHT22;19251;49.484;8.260;2023-04-24T05:26:24;13.30;23.80
32895;DHT22;19251;49.484;8.260;2023-04-24T05:31:26;13.30;23.90
32895;DHT22;19251;49.484;8.260;2023-04-24T05:36:29;13.40;24.00
32895;DHT22;19251;49.484;8.260;2023-04-24T05:41:31;13.40;23.90
32895;DHT22;19251;49.484;8.260;2023-04-24T05:46:33;13.50;23.90
32895;DHT22;19251;49.484;8.260;2023-04-24T05:51:35;13.50;23.90
32895;DHT22;19251;49.484;8.260;2023-04-24T06:01:42;13.70;24.00
32895;DHT22;19251;49.484;8.260;2023-04-24T06:06:45;13.80;24.00
32895;DHT22;19251;49.484;8.260;2023-04-24T06:11:47;13.90;24.20
32895;DHT22;19251;49.484;8.260;2023-04-24T06:21:53;14.00;24.30
32895;DHT22;19251;49.484;8.260;2023-04-24T06:26:55;14.10;24.30
32895;DHT22;19251;49.484;8.260;2023-04-24T06:31:59;14.20;24.30
32895;DHT22;19251;49.484;8.260;2023-04-24T06:37:01;14.20;24.40
32895;DHT22;19251;49.484;8.260;2023-04-24T06:42:03;14.20;24.50
32895;DHT22;19251;49.484;8.260;2023-04-24T06:47:07;14.20;24.50
32895;DHT22;19251;49.484;8.260;2023-04-24T06:52:10;14.30;24.50
32895;DHT22;19251;49.484;8.260;2023-04-24T06:57:12;14.50;24.30
32895;DHT22;19251;49.484;8.260;2023-04-24T07:02:14;14.60;23.90
32895;DHT22;19251;49.484;8.260;2023-04-24T07:07:16;14.60;23.50
32895;DHT22;19251;49.484;8.260;2023-04-24T07:12:19;14.60;23.20
32895;DHT22;19251;49.484;8.260;2023-04-24T07:17:23;14.70;23.00
32895;DHT22;19251;49.484;8.260;2023-04-24T07:22:25;14.60;22.90
32895;DHT22;19251;49.484;8.260;2023-04-24T07:27:27;14.70;22.80
32895;DHT22;19251;49.484;8.260;2023-04-24T07:32:29;14.80;21.80
32895;DHT22;19251;49.484;8.260;2023-04-24T07:37:31;14.80;21.50
32895;DHT22;19251;49.484;8.260;2023-04-24T07:42:34;14.80;20.90
32895;DHT22;19251;49.484;8.260;2023-04-24T07:47:36;14.80;21.10
32895;DHT22;19251;49.484;8.260;2023-04-24T07:52:40;14.90;20.90
32895;DHT22;19251;49.484;8.260;2023-04-24T07:57:42;15.10;20.40
32895;DHT22;19251;49.484;8.260;2023-04-24T08:02:44;15.30;20.10
32895;DHT22;19251;49.484;8.260;2023-04-24T08:07:46;15.60;19.10
32895;DHT22;19251;49.484;8.260;2023-04-24T08:12:50;15.80;19.40
32895;DHT22;19251;49.484;8.260;2023-04-24T08:17:53;15.90;18.80
32895;DHT22;19251;49.484;8.260;2023-04-24T08:22:55;16.10;17.90
32895;DHT22;19251;49.484;8.260;2023-04-24T08:27:58;16.10;17.80
32895;DHT22;19251;49.484;8.260;2023-04-24T08:33:00;16.10;17.10
32895;DHT22;19251;49.484;8.260;2023-04-24T08:38:02;16.00;17.50
32895;DHT22;19251;49.484;8.260;2023-04-24T08:43:04;15.90;16.50
32895;DHT22;19251;49.484;8.260;2023-04-24T08:48:07;15.80;16.80
32895;DHT22;19251;49.484;8.260;2023-04-24T08:53:24;15.80;16.60
32895;DHT22;19251;49.484;8.260;2023-04-24T08:58:27;15.80;17.00
32895;DHT22;19251;49.484;8.260;2023-04-24T09:03:30;15.80;16.70
32895;DHT22;19251;49.484;8.260;2023-04-24T09:08:33;15.80;16.80
32895;DHT22;19251;49.484;8.260;2023-04-24T09:13:35;15.70;16.50
32895;DHT22;19251;49.484;8.260;2023-04-24T09:18:37;15.80;17.10
32895;DHT22;19251;49.484;8.260;2023-04-24T09:23:39;16.10;17.00
32895;DHT22;19251;49.484;8.260;2023-04-24T09:28:42;16.40;16.70
32895;DHT22;19251;49.484;8.260;2023-04-24T09:33:55;16.50;16.10
32895;DHT22;19251;49.484;8.260;2023-04-24T09:39:01;16.60;16.00
32895;DHT22;19251;49.484;8.260;2023-04-24T09:44:13;16.60;15.90
32895;DHT22;19251;49.484;8.260;2023-04-24T09:49:19;16.70;15.60
32895;DHT22;19251;49.484;8.260;2023-04-24T09:54:22;16.90;15.50
32895;DHT22;19251;49.484;8.260;2023-04-24T09:59:24;17.00;15.10
32895;DHT22;19251;49.484;8.260;2023-04-24T10:04:27;17.00;14.80
32895;DHT22;19251;49.484;8.260;2023-04-24T10:09:29;16.90;14.90
32895;DHT22;19251;49.484;8.260;2023-04-24T10:14:32;16.80;14.70
32895;DHT22;19251;49.484;8.260;2023-04-24T10:19:34;16.90;15.20
32895;DHT22;19251;49.484;8.260;2023-04-24T10:24:37;16.90;14.60
32895;DHT22;19251;49.484;8.260;2023-04-24T10:29:40;16.90;14.90
32895;DHT22;19251;49.484;8.260;2023-04-24T10:34:43;17.10;14.50
32895;DHT22;19251;49.484;8.260;2023-04-24T10:39:47;17.30;14.10
32895;DHT22;19251;49.484;8.260;2023-04-24T10:44:49;17.40;14.20
32895;DHT22;19251;49.484;8.260;2023-04-24T10:49:52;17.50;14.10
32895;DHT22;19251;49.484;8.260;2023-04-24T10:54:54;17.50;12.50
32895;DHT22;19251;49.484;8.260;2023-04-24T11:05:48;17.30;13.60
32895;DHT22;19251;49.484;8.260;2023-04-24T11:10:58;17.30;13.50
32895;DHT22;19251;49.484;8.260;2023-04-24T11:16:15;17.30;13.50
32895;DHT22;19251;49.484;8.260;2023-04-24T11:21:22;17.50;13.60
32895;DHT22;19251;49.484;8.260;2023-04-24T11:26:24;17.70;12.80
32895;DHT22;19251;49.484;8.260;2023-04-24T11:36:34;17.90;12.10
32895;DHT22;19251;49.484;8.260;2023-04-24T11:41:37;17.90;11.90
32895;DHT22;19251;49.484;8.260;2023-04-24T11:46:39;17.80;10.80
32895;DHT22;19251;49.484;8.260;2023-04-24T11:51:42;17.60;11.80
32895;DHT22;19251;49.484;8.260;2023-04-24T11:56:55;17.70;12.00
32895;DHT22;19251;49.484;8.260;2023-04-24T12:01:57;17.90;12.10
32895;DHT22;19251;49.484;8.260;2023-04-24T12:07:02;18.20;11.70
32895;DHT22;19251;49.484;8.260;2023-04-24T12:12:05;18.40;10.80
32895;DHT22;19251;49.484;8.260;2023-04-24T12:17:08;18.60;11.10
32895;DHT22;19251;49.484;8.260;2023-04-24T12:22:10;18.70;11.20
32895;DHT22;19251;49.484;8.260;2023-04-24T12:27:19;18.90;10.60
32895;DHT22;19251;49.484;8.260;2023-04-24T12:32:21;19.00;10.30
32895;DHT22;19251;49.484;8.260;2023-04-24T12:47:29;19.80;9.80
32895;DHT22;19251;49.484;8.260;2023-04-24T12:52:31;19.90;8.70
32895;DHT22;19251;49.484;8.260;2023-04-24T12:57:33;19.90;8.90
32895;DHT22;19251;49.484;8.260;2023-04-24T13:02:36;20.00;8.90
32895;DHT22;19251;49.484;8.260;2023-04-24T13:07:39;20.20;8.30
32895;DHT22;19251;49.484;8.260;2023-04-24T13:12:41;20.10;8.20
32895;DHT22;19251;49.484;8.260;2023-04-24T13:17:47;20.10;7.50
32895;DHT22;19251;49.484;8.260;2023-04-24T13:27:51;20.60;7.00
32895;DHT22;19251;49.484;8.260;2023-04-24T13:32:53;20.60;7.10
32895;DHT22;19251;49.484;8.260;2023-04-24T13:37:56;20.40;6.70
32895;DHT22;19251;49.484;8.260;2023-04-24T13:42:58;20.20;6.60
32895;DHT22;19251;49.484;8.260;2023-04-24T13:48:00;19.90;6.60
32895;DHT22;19251;49.484;8.260;2023-04-24T13:53:03;19.60;6.90
32895;DHT22;19251;49.484;8.260;2023-04-24T13:58:05;19.40;7.30
32895;DHT22;19251;49.484;8.260;2023-04-24T14:03:08;19.20;7.50
32895;DHT22;19251;49.484;8.260;2023-04-24T14:08:11;18.90;7.30
32895;DHT22;19251;49.484;8.260;2023-04-24T14:13:13;19.00;7.50
32895;DHT22;19251;49.484;8.260;2023-04-24T14:18:16;19.10;8.20
32895;DHT22;19251;49.484;8.260;2023-04-24T14:23:19;19.80;9.30
32895;DHT22;19251;49.484;8.260;2023-04-24T14:28:21;21.10;9.60
32895;DHT22;19251;49.484;8.260;2023-04-24T14:33:23;22.30;8.80
32895;DHT22;19251;49.484;8.260;2023-04-24T14:38:25;23.10;6.70
32895;DHT22;19251;49.484;8.260;2023-04-24T14:48:30;22.70;5.20
32895;DHT22;19251;49.484;8.260;2023-04-24T14:53:32;22.00;4.90
32895;DHT22;19251;49.484;8.260;2023-04-24T14:58:34;21.20;5.90
32895;DHT22;19251;49.484;8.260;2023-04-24T15:03:37;20.60;6.70
32895;DHT22;19251;49.484;8.260;2023-04-24T15:08:39;20.10;7.10
32895;DHT22;19251;49.484;8.260;2023-04-24T15:13:41;19.70;7.80
32895;DHT22;19251;49.484;8.260;2023-04-24T15:23:46;20.50;8.50
32895;DHT22;19251;49.484;8.260;2023-04-24T15:28:48;21.10;7.70
32895;DHT22;19251;49.484;8.260;2023-04-24T15:33:51;21.30;6.80
32895;DHT22;19251;49.484;8.260;2023-04-24T15:38:53;21.00;6.40
32895;DHT22;19251;49.484;8.260;2023-04-24T15:43:55;20.60;6.30
32895;DHT22;19251;49.484;8.260;2023-04-24T15:48:57;20.10;6.50
32895;DHT22;19251;49.484;8.260;2023-04-24T15:53:59;19.60;6.80
32895;DHT22;19251;49.484;8.260;2023-04-24T15:59:01;19.50;7.40
32895;DHT22;19251;49.484;8.260;2023-04-24T16:04:04;19.70;7.90
32895;DHT22;19251;49.484;8.260;2023-04-24T16:09:08;20.80;8.70
32895;DHT22;19251;49.484;8.260;2023-04-24T16:14:10;21.80;7.30
32895;DHT22;19251;49.484;8.260;2023-04-24T16:19:12;23.00;6.60
32895;DHT22;19251;49.484;8.260;2023-04-24T16:24:14;24.20;5.80
32895;DHT22;19251;49.484;8.260;2023-04-24T16:29:16;25.00;4.20
32895;DHT22;19251;49.484;8.260;2023-04-24T16:34:19;25.10;2.00
32895;DHT22;19251;49.484;8.260;2023-04-24T16:39:22;24.40;1.50
32895;DHT22;19251;49.484;8.260;2023-04-24T16:44:24;23.60;1.70
32895;DHT22;19251;49.484;8.260;2023-04-24T16:49:26;22.70;1.90
32895;DHT22;19251;49.484;8.260;2023-04-24T16:54:31;22.10;2.60
32895;DHT22;19251;49.484;8.260;2023-04-24T16:59:37;21.40;2.90
32895;DHT22;19251;49.484;8.260;2023-04-24T17:04:39;20.90;3.30
32895;DHT22;19251;49.484;8.260;2023-04-24T17:09:41;20.50;3.80
32895;DHT22;19251;49.484;8.260;2023-04-24T17:14:44;20.10;4.30
32895;DHT22;19251;49.484;8.260;2023-04-24T17:19:46;19.70;4.80
32895;DHT22;19251;49.484;8.260;2023-04-24T17:24:48;19.50;5.30
32895;DHT22;19251;49.484;8.260;2023-04-24T17:29:50;19.30;5.50
32895;DHT22;19251;49.484;8.260;2023-04-24T17:34:53;19.10;5.80
32895;DHT22;19251;49.484;8.260;2023-04-24T17:39:55;18.90;6.10
32895;DHT22;19251;49.484;8.260;2023-04-24T17:44:57;18.60;6.40
32895;DHT22;19251;49.484;8.260;2023-04-24T17:49:59;18.50;7.00
32895;DHT22;19251;49.484;8.260;2023-04-24T17:55:01;18.20;6.80
32895;DHT22;19251;49.484;8.260;2023-04-24T18:00:03;17.90;6.90
32895;DHT22;19251;49.484;8.260;2023-04-24T18:05:05;17.70;7.30
32895;DHT22;19251;49.484;8.260;2023-04-24T18:10:07;17.60;7.80
32895;DHT22;19251;49.484;8.260;2023-04-24T18:15:10;17.50;8.00
32895;DHT22;19251;49.484;8.260;2023-04-24T18:20:16;17.30;8.30
32895;DHT22;19251;49.484;8.260;2023-04-24T18:25:18;17.10;8.70
32895;DHT22;19251;49.484;8.260;2023-04-24T18:30:27;17.00;8.80
32895;DHT22;19251;49.484;8.260;2023-04-24T18:35:31;16.90;9.00
32895;DHT22;19251;49.484;8.260;2023-04-24T18:40:33;16.90;9.30
32895;DHT22;19251;49.484;8.260;2023-04-24T18:45:35;16.80;9.50
32895;DHT22;19251;49.484;8.260;2023-04-24T18:50:37;16.70;9.80
32895;DHT22;19251;49.484;8.260;2023-04-24T18:55:41;16.70;9.70
32895;DHT22;19251;49.484;8.260;2023-04-24T19:00:43;16.70;10.00
32895;DHT22;19251;49.484;8.260;2023-04-24T19:05:46;16.70;10.20
32895;DHT22;19251;49.484;8.260;2023-04-24T19:10:48;16.60;10.30
32895;DHT22;19251;49.484;8.260;2023-04-24T19:15:50;16.50;10.80
32895;DHT22;19251;49.484;8.260;2023-04-24T19:20:52;16.50;10.80
32895;DHT22;19251;49.484;8.260;2023-04-24T19:25:54;16.50;11.00
32895;DHT22;19251;49.484;8.260;2023-04-24T19:30:56;16.40;11.20
32895;DHT22;19251;49.484;8.260;2023-04-24T19:35:59;16.40;11.50
32895;DHT22;19251;49.484;8.260;2023-04-24T19:41:01;16.30;11.80
32895;DHT22;19251;49.484;8.260;2023-04-24T19:46:04;16.30;11.90
32895;DHT22;19251;49.484;8.260;2023-04-24T19:51:06;16.20;12.10
32895;DHT22;19251;49.484;8.260;2023-04-24T19:56:08;16.10;12.20
32895;DHT22;19251;49.484;8.260;2023-04-24T20:01:11;16.10;12.40
32895;DHT22;19251;49.484;8.260;2023-04-24T20:06:13;16.00;12.60
32895;DHT22;19251;49.484;8.260;2023-04-24T20:11:15;15.90;12.70
32895;DHT22;19251;49.484;8.260;2023-04-24T20:16:17;15.90;12.90
32895;DHT22;19251;49.484;8.260;2023-04-24T20:21:19;15.80;13.10
32895;DHT22;19251;49.484;8.260;2023-04-24T20:26:22;15.70;13.20
32895;DHT22;19251;49.484;8.260;2023-04-24T20:31:24;15.70;13.40
32895;DHT22;19251;49.484;8.260;2023-04-24T20:36:26;15.60;13.50
32895;DHT22;19251;49.484;8.260;2023-04-24T20:41:29;15.60;13.80
32895;DHT22;19251;49.484;8.260;2023-04-24T20:51:34;15.40;14.30
32895;DHT22;19251;49.484;8.260;2023-04-24T20:56:37;15.40;14.40
32895;DHT22;19251;49.484;8.260;2023-04-24T21:01:39;15.40;14.50
32895;DHT22;19251;49.484;8.260;2023-04-24T21:06:42;15.30;14.70
32895;DHT22;19251;49.484;8.260;2023-04-24T21:11:45;15.30;14.90
32895;DHT22;19251;49.484;8.260;2023-04-24T21:16:47;15.20;15.00
32895;DHT22;19251;49.484;8.260;2023-04-24T21:21:49;15.20;15.10
32895;DHT22;19251;49.484;8.260;2023-04-24T21:26:51;15.10;15.10
32895;DHT22;19251;49.484;8.260;2023-04-24T21:31:53;15.10;15.40
32895;DHT22;19251;49.484;8.260;2023-04-24T21:36:55;15.00;15.50
32895;DHT22;19251;49.484;8.260;2023-04-24T21:41:57;14.90;15.60
32895;DHT22;19251;49.484;8.260;2023-04-24T21:52:02;14.70;16.30
32895;DHT22;19251;49.484;8.260;2023-04-24T21:57:04;14.60;16.70
32895;DHT22;19251;49.484;8.260;2023-04-24T22:02:06;14.40;16.60
32895;DHT22;19251;49.484;8.260;2023-04-24T22:07:08;14.30;16.80
32895;DHT22;19251;49.484;8.260;2023-04-24T22:12:10;14.20;17.10
32895;DHT22;19251;49.484;8.260;2023-04-24T22:17:12;14.10;17.20
32895;DHT22;19251;49.484;8.260;2023-04-24T22:22:16;14.10;17.40
32895;DHT22;19251;49.484;8.260;2023-04-24T22:27:18;14.10;17.60
32895;DHT22;19251;49.484;8.260;2023-04-24T22:32:20;14.00;17.70
32895;DHT22;19251;49.484;8.260;2023-04-24T22:37:22;14.00;17.90
32895;DHT22;19251;49.484;8.260;2023-04-24T22:42:24;14.00;18.10
32895;DHT22;19251;49.484;8.260;2023-04-24T22:47:26;14.00;18.20
32895;DHT22;19251;49.484;8.260;2023-04-24T22:52:29;13.90;18.20
32895;DHT22;19251;49.484;8.260;2023-04-24T22:57:31;13.90;18.40
32895;DHT22;19251;49.484;8.260;2023-04-24T23:02:34;13.90;18.80
32895;DHT22;19251;49.484;8.260;2023-04-24T23:07:36;13.70;18.90
32895;DHT22;19251;49.484;8.260;2023-04-24T23:12:39;13.60;19.10
32895;DHT22;19251;49.484;8.260;2023-04-24T23:17:41;13.50;19.20
32895;DHT22;19251;49.484;8.260;2023-04-24T23:27:46;13.50;19.70
32895;DHT22;19251;49.484;8.260;2023-04-24T23:32:48;13.50;19.90
32895;DHT22;19251;49.484;8.260;2023-04-24T23:37:50;13.50;19.90
32895;DHT22;19251;49.484;8.260;2023-04-24T23:42:52;13.40;19.90
32895;DHT22;19251;49.484;8.260;2023-04-24T23:48:07;13.40;20.00
32895;DHT22;19251;49.484;8.260;2023-04-24T23:53:09;13.40;20.10
32895;DHT22;19251;49.484;8.260;2023-04-24T23:58:11;13.40;20.20
